createdAt,value
2024-05-09T00:02:35.950Z,64.19
2024-05-09T00:18:18.751Z,65.95
2024-05-09T00:34:01.269Z,66.96
2024-05-09T00:49:43.138Z,67.73
2024-05-09T01:05:25.224Z,69.09
2024-05-09T01:21:07.189Z,69.12
2024-05-09T01:36:49.786Z,69.5
2024-05-09T01:52:32.469Z,70.4
2024-05-09T02:08:14.644Z,71.37
2024-05-09T02:23:57.281Z,72.6
2024-05-09T02:39:39.729Z,73.08
2024-05-09T02:55:22.438Z,73.97
2024-05-09T03:11:04.741Z,74.16
2024-05-09T03:26:47.680Z,74.88
2024-05-09T03:42:31.075Z,76.84
2024-05-09T03:58:13.250Z,76.63
2024-05-09T04:13:55.975Z,74.16
2024-05-09T04:29:38.215Z,56.37
2024-05-09T04:45:20.311Z,43.76
2024-05-09T05:01:02.881Z,36.24
2024-05-09T05:16:45.488Z,32.45
2024-05-09T05:32:27.357Z,31.52
2024-05-09T05:48:09.861Z,30.58
2024-05-09T06:03:52.187Z,29.55
2024-05-09T06:19:34.024Z,27.08
2024-05-09T06:35:15.934Z,37.19
2024-05-09T06:50:58.221Z,45.13
2024-05-09T07:06:40.698Z,32.07
2024-05-09T07:22:22.889Z,29.23
2024-05-09T07:38:04.951Z,26.84
2024-05-09T07:53:47.313Z,24.44
2024-05-09T08:09:29.337Z,24.76
2024-05-09T08:25:10.960Z,24.94
2024-05-09T08:40:53.025Z,24.62
2024-05-09T08:56:35.083Z,24.31
2024-05-09T09:12:17.274Z,21.2
2024-05-09T09:27:59.207Z,22
2024-05-09T09:43:41.328Z,22.83
2024-05-09T09:59:24.004Z,23.12
2024-05-09T10:15:06.416Z,22.14
2024-05-09T10:30:48.645Z,19.34
2024-05-09T10:46:30.855Z,20.55
2024-05-09T11:02:12.614Z,18.19
2024-05-09T11:17:54.336Z,17.11
2024-05-09T11:33:36.492Z,18.22
2024-05-09T11:49:18.958Z,20.12
2024-05-09T12:05:00.719Z,17.68
2024-05-09T12:20:42.681Z,18.09
2024-05-09T12:36:24.481Z,17.83
2024-05-09T12:52:07.181Z,15.55
2024-05-09T13:07:49.209Z,15.11
2024-05-09T13:39:13.985Z,13.96
2024-05-09T13:54:56.263Z,16.98
2024-05-09T14:10:38.443Z,23.5
2024-05-09T14:26:21.039Z,25.21
2024-05-09T14:42:02.789Z,25.31
2024-05-09T14:57:45.113Z,25.61
2024-05-09T15:13:27.550Z,26.45
2024-05-09T15:29:09.437Z,26.42
2024-05-09T15:44:52.038Z,26.67
2024-05-09T16:00:34.249Z,27.25
2024-05-09T16:16:15.997Z,27.38
2024-05-09T16:31:58.706Z,27.77
2024-05-09T16:47:40.698Z,28.69
2024-05-09T17:03:22.860Z,28.79
2024-05-09T17:19:05.442Z,29.9
2024-05-09T17:34:47.659Z,31.62
2024-05-09T17:50:29.831Z,31.61
2024-05-09T18:06:12.705Z,31.71
2024-05-09T18:21:54.641Z,31.85
2024-05-09T18:37:36.548Z,32.88
2024-05-09T18:53:19.267Z,34.11
2024-05-09T19:09:00.964Z,35.72
2024-05-09T19:24:43.608Z,37.53
2024-05-09T19:40:25.916Z,39.65
2024-05-09T19:56:07.804Z,42.05
2024-05-09T20:11:49.798Z,43.41
2024-05-09T20:12:36.961Z,43.08
2024-05-09T20:28:19.084Z,44.16
2024-05-09T20:44:01.534Z,44.73
2024-05-09T20:59:43.934Z,45.46
2024-05-09T21:15:26.292Z,47.03
2024-05-09T21:31:08.767Z,48.69
2024-05-09T21:46:50.973Z,49.44
2024-05-09T22:02:33.174Z,51.8
2024-05-09T22:18:15.501Z,52.74
2024-05-09T22:33:57.619Z,53.48
2024-05-09T22:49:40.448Z,54.11
2024-05-09T23:05:22.331Z,56.15
2024-05-09T23:21:04.702Z,56.77
2024-05-09T23:36:46.522Z,58.2
2024-05-09T23:52:28.902Z,59.8
